createdAt,value
2018-10-09T00:16:36.428Z,8.5
2018-10-09T00:33:13.829Z,8.5
2018-10-09T00:49:51.063Z,8.5
2018-10-09T01:06:30.446Z,8.2
2018-10-09T01:23:05.465Z,8.2
2018-10-09T01:39:42.615Z,8.2
2018-10-09T01:56:19.572Z,7.8
2018-10-09T02:12:56.328Z,7.5
2018-10-09T02:29:32.974Z,7.5
2018-10-09T02:46:09.570Z,7.5
2018-10-09T03:02:46.164Z,7.5
2018-10-09T03:19:22.747Z,7.2
2018-10-09T03:35:59.289Z,7.2
2018-10-09T03:52:35.619Z,7.2
2018-10-09T04:09:12.138Z,7.2
2018-10-09T04:25:48.490Z,6.9
2018-10-09T04:42:24.743Z,6.9
2018-10-09T04:59:01.697Z,6.9
2018-10-09T05:15:37.372Z,6.9
2018-10-09T05:32:13.624Z,6.9
2018-10-09T05:48:49.994Z,6.9
2018-10-09T06:05:26.072Z,6.9
2018-10-09T06:22:02.417Z,6.9
2018-10-09T06:38:38.656Z,7.2
2018-10-09T06:55:15.102Z,7.5
2018-10-09T07:11:52.134Z,7.8
2018-10-09T07:28:29.210Z,8.5
2018-10-09T07:40:07.534Z,9.1
2018-10-09T07:53:26.717Z,9.8
2018-10-09T08:03:25.815Z,10.4
2018-10-09T08:20:05.224Z,11.0
2018-10-09T08:36:45.160Z,11.4
2018-10-09T08:53:24.739Z,11.0
2018-10-09T09:10:04.380Z,11.0
2018-10-09T09:16:44.248Z,11.7
2018-10-09T09:23:24.404Z,12.3
2018-10-09T09:36:45.987Z,13.0
2018-10-09T09:43:25.765Z,13.6
2018-10-09T10:00:07.556Z,13.6
2018-10-09T10:13:29.023Z,14.2
2018-10-09T10:20:09.965Z,14.9
2018-10-09T10:26:51.229Z,15.8
2018-10-09T10:36:53.507Z,16.5
2018-10-09T10:50:17.059Z,17.1
2018-10-09T11:07:01.721Z,17.1
2018-10-09T11:23:46.637Z,16.8
2018-10-09T11:37:10.054Z,17.4
2018-10-09T11:53:55.319Z,17.8
2018-10-09T12:10:40.516Z,18.1
2018-10-09T12:27:25.943Z,17.8
2018-10-09T12:44:11.486Z,18.1
2018-10-09T13:00:56.902Z,18.4
2018-10-09T13:14:21.378Z,18.1
2018-10-09T13:21:06.692Z,18.1
2018-10-09T13:37:48.920Z,17.8
2018-10-09T13:54:35.418Z,17.8
2018-10-09T14:11:21.133Z,17.4
2018-10-09T14:28:05.074Z,17.1
2018-10-09T14:44:48.028Z,16.8
2018-10-09T15:01:32.198Z,16.5
2018-10-09T15:18:16.333Z,16.2
2018-10-09T15:34:59.594Z,15.8
2018-10-09T15:51:43.177Z,15.8
2018-10-09T16:08:27.239Z,15.5
2018-10-09T16:25:09.485Z,14.9
2018-10-09T16:41:52.754Z,14.6
2018-10-09T16:58:34.568Z,14.2
2018-10-09T17:15:16.574Z,13.9
2018-10-09T17:31:58.520Z,13.6
2018-10-09T17:48:39.907Z,13.0
2018-10-09T18:05:20.897Z,12.6
2018-10-09T18:22:01.920Z,12.3
2018-10-09T18:38:42.480Z,12.3
2018-10-09T18:55:23.634Z,12.0
2018-10-09T19:12:04.728Z,12.0
2018-10-09T19:28:47.877Z,11.7
2018-10-09T19:45:27.338Z,11.7
2018-10-09T20:02:06.735Z,11.7
2018-10-09T20:18:44.715Z,11.4
2018-10-09T20:35:25.373Z,11.4
2018-10-09T20:52:04.463Z,11.0
2018-10-09T21:08:44.475Z,11.0
2018-10-09T21:25:24.178Z,11.0
2018-10-09T21:42:03.639Z,10.7
2018-10-09T21:58:43.158Z,10.7
2018-10-09T22:15:21.924Z,10.4
2018-10-09T22:32:00.725Z,10.4
2018-10-09T22:48:39.370Z,10.1
2018-10-09T23:05:18.392Z,10.1
2018-10-09T23:21:56.421Z,9.8
2018-10-09T23:38:35.130Z,9.8
2018-10-09T23:55:13.906Z,9.8
